Time;durP1;ratioP1;P1;durP2;ratioP2;P2;SDS_P1;SDS_P2;PMS_P1;PMS_P2;Temp;Humidity;BMP_temperature;BMP_pressure;BME280_temperature;BME280_humidity;BME280_pressure;Samples;Min_cycle;Max_cycle;Signal;HPM_P1;HPM_P2
2022/09/03 00:01:42;;;;;;;;;;;;;;;19.01;55.45;99922.16;4352361;32;39538;-87
2022/09/03 00:04:17;;;;;;;;;;;;;;;18.88;55.85;99924.09;4353443;32;36922;-86
2022/09/03 00:06:54;;;;;;;;;;;;;;;18.84;56.01;99925.06;4356011;32;37316;-85
2022/09/03 00:09:24;;;;;;;;;;;;;;;19.04;55.46;99925.59;4352487;32;39724;-84
2022/09/03 00:11:53;;;;;;;;;;;;;;;18.93;55.77;99919.66;4351866;32;38920;-85
2022/09/03 00:14:46;;;;;;;;;;;;;;;19.01;55.33;99917.75;4353650;32;37577;-85
2022/09/03 00:17:15;;;;;;;;;;;;;;;18.95;55.40;99922.25;4351960;32;37617;-85
2022/09/03 00:19:57;;;;;;;;;;;;;;;18.99;55.39;99924.81;4354047;32;38190;-85
2022/09/03 00:22:32;;;;;;;;;;;;;;;18.90;55.77;99924.09;4347796;32;39076;-86
2022/09/03 00:25:01;;;;;;;;;;;;;;;18.89;55.92;99923.25;4352394;32;37408;-85
2022/09/03 00:27:29;;;;;;;;;;;;;;;18.88;55.65;99931.97;4352625;32;39605;-84
2022/09/03 00:29:57;;;;;;;;;;;;;;;18.92;55.16;99928.44;4353841;32;38434;-84
2022/09/03 00:32:46;;;;;;;;;;;;;;;18.92;55.58;99927.53;4353689;32;40228;-84
2022/09/03 00:35:21;;;;;;;;;;;;;;;18.85;55.82;99932.03;4353849;32;37449;-85
2022/09/03 00:37:52;;;;;;;;;;;;;;;18.63;56.18;99920.97;4353543;32;38580;-85
2022/09/03 00:40:31;;;;;;;;;;;;;;;18.89;55.51;99918.00;4353620;32;38195;-84
2022/09/03 00:43:17;;;;;;;;;;;;;;;18.83;55.72;99922.47;4351996;32;39305;-83
2022/09/03 00:45:56;;;;;;;;;;;;;;;18.74;55.77;99923.47;4353543;32;37704;-85
2022/09/03 00:48:25;;;;;;;;;;;;;;;18.41;57.08;99930.94;4352069;32;38778;-85
2022/09/03 00:50:54;;;;;;;;;;;;;;;18.61;56.18;99921.91;4354796;32;38907;-85
2022/09/03 00:53:25;;;;;;;;;;;;;;;18.52;56.53;99918.53;4340938;32;37927;-83
2022/09/03 00:56:14;;;;;;;;;;;;;;;18.44;56.61;99925.66;4356712;32;38150;-84
2022/09/03 00:59:08;;;;;;;;;;;;;;;18.57;56.36;99928.97;4339350;33;38014;-84
2022/09/03 01:01:54;;;;;;;;;;;;;;;18.68;56.01;99928.78;4338925;33;38991;-84
2022/09/03 01:04:34;;;;;;;;;;;;;;;18.54;55.99;99937.72;4340371;33;38756;-84
2022/09/03 01:07:05;;;;;;;;;;;;;;;18.54;56.12;99940.34;4348464;32;36857;-84
2022/09/03 01:09:53;;;;;;;;;;;;;;;18.51;56.12;99935.16;4347446;32;37827;-85
2022/09/03 01:12:39;;;;;;;;;;;;;;;18.52;56.02;99939.50;4355001;32;38028;-85
2022/09/03 01:15:09;;;;;;;;;;;;;;;18.74;54.99;99941.84;4341033;32;39529;-85
2022/09/03 01:17:42;;;;;;;;;;;;;;;18.69;55.13;99946.25;4354029;32;37429;-84
2022/09/03 01:20:21;;;;;;;;;;;;;;;18.65;55.25;99949.81;4356875;32;37743;-86
2022/09/03 01:23:04;;;;;;;;;;;;;;;18.37;56.11;99944.97;4355221;32;37999;-84
2022/09/03 01:25:43;;;;;;;;;;;;;;;18.31;56.71;99951.19;4354935;32;38535;-85
2022/09/03 01:28:32;;;;;;;;;;;;;;;18.31;56.62;99945.03;4357640;32;37856;-86
2022/09/03 01:31:09;;;;;;;;;;;;;;;18.25;57.16;99950.38;4355134;32;37946;-83
2022/09/03 01:33:43;;;;;;;;;;;;;;;18.26;56.61;99946.88;4355083;32;38184;-84
2022/09/03 01:36:15;;;;;;;;;;;;;;;18.29;56.32;99949.47;4356135;32;39402;-85
2022/09/03 01:38:46;;;;;;;;;;;;;;;18.34;56.45;99939.75;4368584;32;38352;-84
2022/09/03 01:44:11;;;;;;;;;;;;;;;18.44;56.00;99950.97;4354930;32;38417;-84
2022/09/03 01:46:39;;;;;;;;;;;;;;;18.35;56.45;99957.25;4354091;32;38757;-84
2022/09/03 01:49:08;;;;;;;;;;;;;;;18.17;57.15;99947.00;4353896;32;36679;-84
2022/09/03 01:51:35;;;;;;;;;;;;;;;18.37;56.53;99955.44;4370525;32;38040;-84
2022/09/03 01:54:06;;;;;;;;;;;;;;;18.22;56.61;99950.41;4369837;32;37921;-85
2022/09/03 01:56:36;;;;;;;;;;;;;;;18.23;56.48;99949.53;4369871;32;38958;-84
2022/09/03 01:59:10;;;;;;;;;;;;;;;18.32;56.19;99950.28;4371903;32;36818;-85
2022/09/03 02:01:42;;;;;;;;;;;;;;;18.21;56.58;99953.91;4369575;32;38105;-86
2022/09/03 02:04:19;;;;;;;;;;;;;;;18.25;56.45;99955.59;4368238;32;38221;-84
2022/09/03 02:06:47;;;;;;;;;;;;;;;18.28;56.22;99960.81;4372085;32;39728;-84
2022/09/03 02:09:18;;;;;;;;;;;;;;;18.36;55.54;99953.72;4362021;32;37827;-86
2022/09/03 02:11:51;;;;;;;;;;;;;;;18.31;55.60;99955.53;4370297;32;38488;-85
2022/09/03 02:14:18;;;;;;;;;;;;;;;18.27;55.77;99953.84;4368837;32;38600;-85
2022/09/03 02:16:45;;;;;;;;;;;;;;;18.27;56.00;99948.59;4368516;32;39207;-84
2022/09/03 02:19:13;;;;;;;;;;;;;;;18.38;55.70;99957.19;4369751;32;38126;-84
2022/09/03 02:21:45;;;;;;;;;;;;;;;17.85;57.47;99966.59;4369949;32;38461;-85
2022/09/03 02:24:12;;;;;;;;;;;;;;;18.02;56.93;99964.63;4368865;32;37827;-84
2022/09/03 02:26:40;;;;;;;;;;;;;;;18.25;56.03;99960.84;4370852;32;39016;-86
2022/09/03 02:29:07;;;;;;;;;;;;;;;18.03;56.80;99953.28;4370236;32;36990;-86
2022/09/03 02:31:35;;;;;;;;;;;;;;;17.95;56.90;99949.88;4369503;32;38586;-83
2022/09/03 02:34:02;;;;;;;;;;;;;;;18.03;56.69;99950.66;4369795;32;38268;-85
2022/09/03 02:36:31;;;;;;;;;;;;;;;17.99;56.75;99951.56;4371960;32;40088;-86
2022/09/03 02:38:59;;;;;;;;;;;;;;;17.97;56.82;99955.97;4369668;32;36935;-86
2022/09/03 02:41:26;;;;;;;;;;;;;;;18.17;56.15;99957.47;4368890;32;37997;-83
2022/09/03 02:43:56;;;;;;;;;;;;;;;17.91;56.91;99961.28;4368521;32;39427;-85
2022/09/03 02:46:26;;;;;;;;;;;;;;;17.95;56.73;99951.62;4368369;32;38851;-86
2022/09/03 02:48:54;;;;;;;;;;;;;;;18.11;56.05;99959.28;4373004;32;37303;-84
2022/09/03 02:51:21;;;;;;;;;;;;;;;18.18;55.92;99956.59;4061327;32;10000592;-84
2022/09/03 02:53:48;;;;;;;;;;;;;;;17.76;57.59;99956.19;4353748;32;37896;-85
2022/09/03 02:56:17;;;;;;;;;;;;;;;18.01;56.43;99968.16;4358677;32;39412;-86
2022/09/03 02:58:44;;;;;;;;;;;;;;;17.98;56.52;99960.31;4369351;32;38508;-85
2022/09/03 03:01:11;;;;;;;;;;;;;;;17.88;56.67;99964.81;4369453;32;36979;-85
2022/09/03 03:03:50;;;;;;;;;;;;;;;17.95;56.53;99957.75;4370085;32;37887;-85
2022/09/03 03:06:21;;;;;;;;;;;;;;;17.88;56.84;99961.31;4369088;32;37929;-84
2022/09/03 03:08:48;;;;;;;;;;;;;;;17.94;56.72;99953.41;4369250;32;38653;-86
2022/09/03 03:11:17;;;;;;;;;;;;;;;18.00;56.27;99950.72;4369777;32;38194;-85
2022/09/03 03:13:45;;;;;;;;;;;;;;;18.11;56.13;99954.03;4363273;32;36232;-84
2022/09/03 03:16:12;;;;;;;;;;;;;;;18.11;56.08;99956.66;4368023;32;37955;-82
2022/09/03 03:18:40;;;;;;;;;;;;;;;17.84;56.95;99957.03;4365366;32;39393;-84
2022/09/03 03:21:08;;;;;;;;;;;;;;;17.79;57.03;99959.66;4380622;32;37654;-85
2022/09/03 03:23:36;;;;;;;;;;;;;;;17.94;56.85;99966.50;4374776;32;37456;-84
2022/09/03 03:26:05;;;;;;;;;;;;;;;17.99;56.46;99964.66;4369349;32;39381;-86
2022/09/03 03:28:33;;;;;;;;;;;;;;;17.72;57.17;99963.22;4368172;32;40420;-85
2022/09/03 03:31:04;;;;;;;;;;;;;;;17.61;57.78;99965.97;4366922;32;38207;-85
2022/09/03 03:33:32;;;;;;;;;;;;;;;17.87;56.85;99975.31;4359001;32;37370;-86
2022/09/03 03:36:02;;;;;;;;;;;;;;;17.93;56.41;99979.59;4368428;32;38398;-86
2022/09/03 03:38:30;;;;;;;;;;;;;;;17.87;56.77;99975.31;4369205;32;39135;-87
2022/09/03 03:40:58;;;;;;;;;;;;;;;17.68;57.22;99974.62;4365514;32;36964;-86
2022/09/03 03:43:25;;;;;;;;;;;;;;;17.67;57.14;99972.88;4373574;32;37613;-87
2022/09/03 03:45:56;;;;;;;;;;;;;;;17.49;57.96;99968.72;4366728;32;38193;-85
2022/09/03 03:48:24;;;;;;;;;;;;;;;17.55;57.54;99976.50;4359849;32;39439;-86
2022/09/03 03:50:52;;;;;;;;;;;;;;;17.72;56.88;99973.69;4357240;32;38090;-85
2022/09/03 03:53:19;;;;;;;;;;;;;;;17.73;56.86;99970.19;4354054;32;39100;-82
2022/09/03 03:55:56;;;;;;;;;;;;;;;17.53;57.66;99973.00;4355076;32;37922;-86
2022/09/03 03:58:23;;;;;;;;;;;;;;;17.67;57.07;99965.00;4351423;32;39921;-85
2022/09/03 04:00:51;;;;;;;;;;;;;;;17.66;57.19;99977.22;4353921;32;37533;-83
2022/09/03 04:03:18;;;;;;;;;;;;;;;17.64;57.18;99983.38;4357538;32;38080;-84
2022/09/03 04:05:55;;;;;;;;;;;;;;;17.71;56.99;99984.16;4355407;32;39323;-84
2022/09/03 04:08:22;;;;;;;;;;;;;;;17.67;57.19;99989.44;4353859;32;39107;-85
2022/09/03 04:10:50;;;;;;;;;;;;;;;17.61;57.67;99993.87;4354212;32;37228;-84
2022/09/03 04:13:17;;;;;;;;;;;;;;;17.65;57.63;100000.81;4347542;32;38968;-85
2022/09/03 04:15:45;;;;;;;;;;;;;;;17.61;57.86;99994.75;4353602;32;39704;-84
2022/09/03 04:18:13;;;;;;;;;;;;;;;17.87;56.98;99997.12;4354851;32;39152;-84
2022/09/03 04:20:40;;;;;;;;;;;;;;;17.53;58.32;100001.81;4354159;32;37759;-84
2022/09/03 04:23:07;;;;;;;;;;;;;;;17.72;57.61;100001.62;4353143;32;39750;-86
2022/09/03 04:25:35;;;;;;;;;;;;;;;17.79;57.35;100005.94;4353780;32;38345;-85
2022/09/03 04:28:03;;;;;;;;;;;;;;;17.81;57.32;100001.56;4349040;32;37868;-86
2022/09/03 04:30:31;;;;;;;;;;;;;;;17.64;58.08;99994.72;4355383;32;36907;-86
2022/09/03 04:33:00;;;;;;;;;;;;;;;17.45;58.86;100003.63;4341656;32;37596;-86
2022/09/03 04:35:28;;;;;;;;;;;;;;;17.68;57.87;100008.66;4356015;32;38067;-86
2022/09/03 04:37:56;;;;;;;;;;;;;;;17.85;57.06;100003.25;4347573;32;38514;-86
2022/09/03 04:40:23;;;;;;;;;;;;;;;17.62;57.97;100006.97;4355599;32;36719;-85
2022/09/03 04:42:55;;;;;;;;;;;;;;;17.60;58.10;100013.94;4355556;32;39572;-85
2022/09/03 04:45:22;;;;;;;;;;;;;;;17.54;58.09;100011.38;4348050;32;37976;-83
2022/09/03 04:47:56;;;;;;;;;;;;;;;17.61;57.95;100018.31;4355124;32;39442;-86
2022/09/03 04:50:26;;;;;;;;;;;;;;;17.95;56.79;100015.38;4358363;32;37249;-84
2022/09/03 04:53:02;;;;;;;;;;;;;;;17.78;57.12;100017.31;4347788;32;37158;-85
2022/09/03 04:55:35;;;;;;;;;;;;;;;17.89;56.67;100021.53;4355294;32;37986;-83
2022/09/03 04:58:06;;;;;;;;;;;;;;;17.76;57.54;100013.78;4344554;32;39234;-85
2022/09/03 05:00:37;;;;;;;;;;;;;;;17.64;58.02;100013.06;4354024;32;36662;-86
2022/09/03 05:03:04;;;;;;;;;;;;;;;17.79;57.78;100016.41;4355896;32;38198;-83
2022/09/03 05:05:33;;;;;;;;;;;;;;;17.85;57.80;100014.59;4369825;32;37994;-83
2022/09/03 05:08:06;;;;;;;;;;;;;;;17.79;57.97;100008.56;4370120;32;39175;-82
2022/09/03 05:10:34;;;;;;;;;;;;;;;17.96;57.41;100014.47;4370537;32;37622;-81
2022/09/03 05:13:05;;;;;;;;;;;;;;;17.95;57.82;100015.38;4369012;32;38235;-82
2022/09/03 05:15:33;;;;;;;;;;;;;;;17.76;58.53;100019.03;4369564;32;38574;-81
2022/09/03 05:18:01;;;;;;;;;;;;;;;18.02;57.83;100021.41;4369744;32;39634;-80
2022/09/03 05:20:29;;;;;;;;;;;;;;;18.27;57.23;100024.59;4360309;32;37714;-79
2022/09/03 05:23:00;;;;;;;;;;;;;;;18.17;57.69;100025.59;4370207;32;38049;-80
2022/09/03 05:25:27;;;;;;;;;;;;;;;18.17;58.15;100025.59;4374957;32;38069;-81
2022/09/03 05:27:55;;;;;;;;;;;;;;;18.24;57.85;100019.38;4362399;32;37882;-80
2022/09/03 05:30:22;;;;;;;;;;;;;;;18.31;57.46;100018.41;4371502;32;36441;-80
2022/09/03 05:32:50;;;;;;;;;;;;;;;18.35;57.33;100020.13;4368967;32;38230;-80
2022/09/03 05:35:18;;;;;;;;;;;;;;;18.56;56.86;100018.97;4371843;32;38894;-80
2022/09/03 05:37:53;;;;;;;;;;;;;;;18.54;57.36;100016.37;4369777;32;38866;-80
2022/09/03 05:40:22;;;;;;;;;;;;;;;18.51;57.59;100018.19;4363468;32;37994;-80
2022/09/03 05:42:53;;;;;;;;;;;;;;;18.69;56.77;100020.53;4369146;32;38072;-80
2022/09/03 05:45:22;;;;;;;;;;;;;;;18.42;58.63;100016.53;4368267;32;38989;-81
2022/09/03 05:47:49;;;;;;;;;;;;;;;18.80;57.52;100015.19;4372038;32;39400;-80
2022/09/03 05:50:17;;;;;;;;;;;;;;;18.81;57.24;100019.53;4371539;32;37285;-81
2022/09/03 05:52:44;;;;;;;;;;;;;;;18.84;57.12;100029.97;4362125;32;39385;-81
2022/09/03 05:55:12;;;;;;;;;;;;;;;18.86;57.53;100033.44;4372300;32;39056;-81
2022/09/03 05:57:42;;;;;;;;;;;;;;;18.85;57.88;100031.69;4371395;32;39047;-80
2022/09/03 06:00:09;;;;;;;;;;;;;;;19.08;57.28;100033.09;4361970;32;37253;-82
2022/09/03 06:02:37;;;;;;;;;;;;;;;19.21;57.07;100030.28;4371895;32;38078;-80
2022/09/03 06:05:06;;;;;;;;;;;;;;;19.11;57.50;100019.94;4368840;32;38383;-81
2022/09/03 06:07:34;;;;;;;;;;;;;;;19.19;57.60;100025.94;4369865;32;40258;-81
2022/09/03 06:10:03;;;;;;;;;;;;;;;19.21;57.72;100021.56;4368929;32;37706;-80
2022/09/03 06:12:30;;;;;;;;;;;;;;;19.27;57.81;100019.69;4363676;32;38181;-81
2022/09/03 06:14:58;;;;;;;;;;;;;;;19.42;57.37;100018.53;4368695;32;38258;-80
2022/09/03 06:17:25;;;;;;;;;;;;;;;19.66;55.70;100016.44;4383413;32;38031;-80
2022/09/03 06:19:53;;;;;;;;;;;;;;;19.77;54.54;100019.72;4367674;32;36557;-80
2022/09/03 06:22:23;;;;;;;;;;;;;;;19.78;54.75;100021.44;4368532;32;38819;-80
2022/09/03 06:24:53;;;;;;;;;;;;;;;19.97;54.59;100017.59;4368047;32;38170;-80
2022/09/03 06:27:20;;;;;;;;;;;;;;;20.08;54.18;100019.13;4370294;32;38995;-80
2022/09/03 06:29:47;;;;;;;;;;;;;;;20.23;53.62;100018.81;4369292;32;37784;-80
2022/09/03 06:32:15;;;;;;;;;;;;;;;20.44;53.41;100010.47;4369038;32;38067;-80
2022/09/03 06:34:42;;;;;;;;;;;;;;;20.60;52.88;100012.78;4370204;32;38046;-81
2022/09/03 06:37:10;;;;;;;;;;;;;;;20.88;52.12;100008.62;4371335;32;38763;-80
2022/09/03 06:39:37;;;;;;;;;;;;;;;21.07;52.57;100013.47;4369226;32;37481;-80
2022/09/03 06:42:05;;;;;;;;;;;;;;;21.21;52.24;100006.06;4368282;32;39124;-80
2022/09/03 06:44:32;;;;;;;;;;;;;;;21.26;51.61;100006.84;4367246;32;38226;-80
2022/09/03 06:47:00;;;;;;;;;;;;;;;21.33;50.94;100004.91;4370999;32;40202;-80
2022/09/03 06:49:27;;;;;;;;;;;;;;;21.17;51.79;100004.44;4368490;32;37811;-80
2022/09/03 06:51:54;;;;;;;;;;;;;;;21.07;53.26;100002.94;4370645;32;38610;-80
2022/09/03 06:54:23;;;;;;;;;;;;;;;21.59;51.40;100001.62;4362664;32;36757;-80
2022/09/03 06:56:51;;;;;;;;;;;;;;;21.82;51.57;100004.53;4369178;32;38489;-80
2022/09/03 06:59:18;;;;;;;;;;;;;;;22.28;48.56;99997.97;4368751;32;36408;-80
2022/09/03 07:01:46;;;;;;;;;;;;;;;22.47;48.25;100003.56;4369551;32;37929;-80
2022/09/03 07:04:17;;;;;;;;;;;;;;;22.72;47.56;100001.03;4369684;32;38230;-81
2022/09/03 07:06:46;;;;;;;;;;;;;;;22.91;48.28;100000.44;4369715;32;38983;-81
2022/09/03 07:09:14;;;;;;;;;;;;;;;23.38;46.37;100000.69;4369779;32;37444;-80
2022/09/03 07:11:45;;;;;;;;;;;;;;;23.57;46.04;100004.41;4369857;32;39161;-81
2022/09/03 07:14:18;;;;;;;;;;;;;;;23.98;44.92;99994.19;4369253;32;38151;-80
2022/09/03 07:16:46;;;;;;;;;;;;;;;24.29;43.47;99998.34;4366672;32;38601;-81
2022/09/03 07:19:13;;;;;;;;;;;;;;;24.32;44.28;99992.94;4368946;32;37559;-81
2022/09/03 07:21:41;;;;;;;;;;;;;;;24.62;44.65;99992.69;4368798;32;38475;-81
2022/09/03 07:24:15;;;;;;;;;;;;;;;24.42;42.71;99983.75;4372048;32;38064;-81
2022/09/03 07:26:47;;;;;;;;;;;;;;;24.71;41.03;99989.69;4369570;32;38837;-81
2022/09/03 07:29:18;;;;;;;;;;;;;;;24.98;42.06;99996.53;4369487;32;38033;-81
2022/09/03 07:31:49;;;;;;;;;;;;;;;25.04;41.66;99996.25;4371113;32;39227;-80
2022/09/03 07:34:17;;;;;;;;;;;;;;;25.25;40.56;99991.03;4369223;32;38150;-80
2022/09/03 07:36:49;;;;;;;;;;;;;;;25.61;40.96;99998.34;4371003;32;38716;-82
2022/09/03 07:39:17;;;;;;;;;;;;;;;25.84;39.27;99998.22;4368930;32;37084;-81
2022/09/03 07:41:45;;;;;;;;;;;;;;;25.69;39.81;100001.53;4367814;32;38103;-81
2022/09/03 07:44:14;;;;;;;;;;;;;;;25.61;40.72;100003.66;4362610;32;38385;-81
2022/09/03 07:46:42;;;;;;;;;;;;;;;26.07;38.95;100007.81;4355363;32;37363;-80
2022/09/03 07:49:10;;;;;;;;;;;;;;;25.95;39.12;100000.41;4370881;32;37122;-80
2022/09/03 07:51:37;;;;;;;;;;;;;;;26.46;38.45;100003.41;4362306;32;38260;-81
2022/09/03 07:54:09;;;;;;;;;;;;;;;26.25;39.95;100008.75;4367775;32;38238;-81
2022/09/03 07:56:38;;;;;;;;;;;;;;;26.26;39.54;100005.19;4362898;32;39128;-81
2022/09/03 07:59:05;;;;;;;;;;;;;;;25.85;37.91;100002.63;4372757;32;36941;-80
2022/09/03 08:01:33;;;;;;;;;;;;;;;26.53;37.42;100000.41;4370365;32;38325;-81
2022/09/03 08:04:01;;;;;;;;;;;;;;;26.53;39.70;99999.56;4370860;32;39223;-81
2022/09/03 08:06:29;;;;;;;;;;;;;;;26.09;39.34;100005.09;4371038;32;38959;-81
2022/09/03 08:08:57;;;;;;;;;;;;;;;26.26;38.33;100009.63;4370581;32;36745;-81
2022/09/03 08:11:31;;;;;;;;;;;;;;;26.29;37.88;100007.72;4370472;32;39153;-81
2022/09/03 08:14:00;;;;;;;;;;;;;;;26.58;36.63;100008.16;4358992;32;38042;-81
2022/09/03 08:16:29;;;;;;;;;;;;;;;26.60;37.81;100006.28;4353626;32;39400;-81
2022/09/03 08:18:57;;;;;;;;;;;;;;;27.14;35.39;100007.22;4355818;32;36887;-81
2022/09/03 08:21:25;;;;;;;;;;;;;;;26.74;38.10;100008.28;4354086;32;37772;-81
2022/09/03 08:23:53;;;;;;;;;;;;;;;26.31;37.54;100015.59;4366340;32;38751;-81
2022/09/03 08:26:21;;;;;;;;;;;;;;;26.37;38.38;100010.84;4353930;32;39808;-81
2022/09/03 08:28:48;;;;;;;;;;;;;;;26.62;37.74;100007.09;4355765;32;36684;-81
2022/09/03 08:31:17;;;;;;;;;;;;;;;26.72;36.20;100008.38;4356310;32;39464;-81
2022/09/03 08:33:46;;;;;;;;;;;;;;;26.69;38.34;100013.81;4359573;32;38199;-81
2022/09/03 08:36:16;;;;;;;;;;;;;;;26.96;37.33;100024.03;4356114;32;39177;-81
2022/09/03 08:38:45;;;;;;;;;;;;;;;26.96;39.40;100013.41;4355741;32;37163;-81
2022/09/03 08:41:17;;;;;;;;;;;;;;;27.49;37.48;100013.44;4355811;32;38050;-81
2022/09/03 08:43:44;;;;;;;;;;;;;;;26.77;36.77;100022.28;4354449;32;39077;-81
2022/09/03 08:46:11;;;;;;;;;;;;;;;26.72;37.14;100016.34;4355547;32;38732;-82
2022/09/03 08:48:38;;;;;;;;;;;;;;;27.18;37.08;100019.41;4354099;32;37122;-81
2022/09/03 08:51:13;;;;;;;;;;;;;;;27.11;35.47;100015.31;3159025;32;10010989;-81
2022/09/03 08:53:44;;;;;;;;;;;;;;;27.15;36.98;100019.56;4350137;32;20345;-81
2022/09/03 08:56:12;;;;;;;;;;;;;;;26.93;37.00;100013.56;4356806;32;39185;-81
2022/09/03 08:58:43;;;;;;;;;;;;;;;27.19;36.05;100007.03;4360054;32;39195;-81
2022/09/03 09:01:17;;;;;;;;;;;;;;;27.29;36.92;100014.44;4370419;32;38631;-81
2022/09/03 09:03:45;;;;;;;;;;;;;;;27.39;38.06;100001.53;4356555;32;36904;-81
2022/09/03 09:06:31;;;;;;;;;;;;;;;27.31;37.43;100009.91;4371845;32;39271;-81
2022/09/03 09:09:07;;;;;;;;;;;;;;;26.77;35.01;99998.38;4370573;32;39378;-80
2022/09/03 09:11:47;;;;;;;;;;;;;;;27.36;36.37;99991.91;4367314;32;39908;-80
2022/09/03 09:14:38;;;;;;;;;;;;;;;27.39;38.76;99995.38;4371815;32;36791;-81
2022/09/03 09:17:15;;;;;;;;;;;;;;;27.71;34.09;99991.06;4367096;32;37546;-81
2022/09/03 09:20:06;;;;;;;;;;;;;;;27.84;34.90;99992.16;4362886;32;38343;-81
2022/09/03 09:22:37;;;;;;;;;;;;;;;28.02;35.15;99985.00;4337143;32;39176;-82
2022/09/03 09:25:08;;;;;;;;;;;;;;;27.60;37.13;99983.63;4381727;32;37315;-81
2022/09/03 09:27:35;;;;;;;;;;;;;;;27.30;35.75;99978.94;4364687;32;38088;-81
2022/09/03 09:30:03;;;;;;;;;;;;;;;27.72;35.70;99988.28;4371902;32;38862;-81
2022/09/03 09:32:33;;;;;;;;;;;;;;;28.10;32.86;99982.75;4373792;32;39637;-82
2022/09/03 09:35:01;;;;;;;;;;;;;;;27.68;34.10;99976.09;4366645;32;37070;-81
2022/09/03 09:37:29;;;;;;;;;;;;;;;27.44;34.37;99985.34;4357828;32;38137;-81
2022/09/03 09:39:57;;;;;;;;;;;;;;;27.97;34.55;99976.38;4360539;32;38457;-81
2022/09/03 09:42:25;;;;;;;;;;;;;;;27.26;35.55;99979.19;4365688;32;38314;-79
2022/09/03 09:44:52;;;;;;;;;;;;;;;27.41;37.75;99983.72;4360216;32;38162;-79
2022/09/03 09:47:21;;;;;;;;;;;;;;;27.85;36.14;99979.69;4369476;32;38750;-79
2022/09/03 09:49:50;;;;;;;;;;;;;;;27.98;36.53;99983.41;4368789;32;38205;-80
2022/09/03 09:52:18;;;;;;;;;;;;;;;28.00;33.18;99978.87;4370712;32;38736;-79
2022/09/03 09:54:45;;;;;;;;;;;;;;;28.49;33.46;99978.87;4371770;32;37662;-81
2022/09/03 09:57:17;;;;;;;;;;;;;;;27.73;35.25;99979.41;4366121;32;38125;-80
2022/09/03 09:59:48;;;;;;;;;;;;;;;27.90;34.67;99980.31;4356322;32;37568;-80
2022/09/03 10:02:19;;;;;;;;;;;;;;;27.87;35.68;99980.50;4354820;32;38975;-80
2022/09/03 10:04:48;;;;;;;;;;;;;;;27.73;35.93;99987.38;4370797;32;37948;-80
2022/09/03 10:07:25;;;;;;;;;;;;;;;28.10;34.66;99982.75;4370681;32;38516;-80
2022/09/03 10:10:00;;;;;;;;;;;;;;;28.54;34.07;99982.16;4371270;32;38270;-80
2022/09/03 10:12:29;;;;;;;;;;;;;;;28.07;34.02;99980.28;4359794;32;38671;-80
2022/09/03 10:15:09;;;;;;;;;;;;;;;28.35;33.87;99976.97;4355760;32;36958;-80
2022/09/03 10:17:45;;;;;;;;;;;;;;;28.13;33.95;99982.59;4367343;32;38571;-80
2022/09/03 10:20:29;;;;;;;;;;;;;;;28.57;32.87;99986.47;4368108;32;38508;-80
2022/09/03 10:23:01;;;;;;;;;;;;;;;28.50;34.34;99980.63;4364838;32;37935;-80
2022/09/03 10:25:39;;;;;;;;;;;;;;;28.59;32.04;99980.09;4355639;32;37348;-80
2022/09/03 10:28:08;;;;;;;;;;;;;;;28.09;34.13;99973.06;4362724;32;38713;-81
2022/09/03 10:30:53;;;;;;;;;;;;;;;28.64;32.33;99975.34;4370708;32;37784;-80
2022/09/03 10:33:22;;;;;;;;;;;;;;;28.64;31.90;99978.03;4368459;32;38251;-80
2022/09/03 10:35:51;;;;;;;;;;;;;;;28.62;31.82;99974.59;4364648;32;37465;-81
2022/09/03 10:38:22;;;;;;;;;;;;;;;28.84;31.14;99970.69;4357602;32;37919;-81
2022/09/03 10:40:52;;;;;;;;;;;;;;;28.64;33.56;99967.38;4356969;32;38927;-81
2022/09/03 10:43:34;;;;;;;;;;;;;;;28.52;33.30;99968.06;4360570;32;39097;-82
2022/09/03 10:46:06;;;;;;;;;;;;;;;28.31;34.40;99963.91;4364439;32;36899;-81
2022/09/03 10:48:52;;;;;;;;;;;;;;;28.33;33.84;99962.00;4358683;32;39784;-81
2022/09/03 10:51:19;;;;;;;;;;;;;;;29.05;30.95;99960.66;4365188;32;38903;-81
2022/09/03 10:54:02;;;;;;;;;;;;;;;28.98;31.95;99952.12;4364431;32;38649;-82
2022/09/03 10:56:49;;;;;;;;;;;;;;;29.03;31.32;99955.37;4364257;32;38064;-81
2022/09/03 10:59:27;;;;;;;;;;;;;;;28.77;30.79;99950.69;4371838;32;39033;-82
2022/09/03 11:02:14;;;;;;;;;;;;;;;28.39;32.09;99951.00;4363138;32;38450;-81
2022/09/03 11:04:44;;;;;;;;;;;;;;;28.32;31.09;99949.66;4360666;32;38828;-80
2022/09/03 11:07:12;;;;;;;;;;;;;;;28.58;31.80;99943.75;4361637;32;36868;-80
2022/09/03 11:09:47;;;;;;;;;;;;;;;28.91;30.55;99951.62;4363578;32;38058;-82
2022/09/03 11:12:16;;;;;;;;;;;;;;;29.21;29.35;99945.44;4349610;32;39222;-82
2022/09/03 11:14:53;;;;;;;;;;;;;;;28.60;31.47;99954.31;4349517;32;38695;-82
2022/09/03 11:17:22;;;;;;;;;;;;;;;28.03;31.76;99946.78;4358506;32;37935;-82
2022/09/03 11:19:51;;;;;;;;;;;;;;;27.91;31.05;99950.09;4350454;32;39348;-81
2022/09/03 11:22:21;;;;;;;;;;;;;;;27.54;31.92;99952.03;4358006;32;37669;-81
2022/09/03 11:24:51;;;;;;;;;;;;;;;27.87;30.84;99951.22;4345064;32;38547;-82
2022/09/03 11:27:21;;;;;;;;;;;;;;;27.74;32.54;99948.31;4344949;32;37068;-82
2022/09/03 11:29:50;;;;;;;;;;;;;;;27.78;31.70;99955.22;4357328;32;38104;-82
2022/09/03 11:32:20;;;;;;;;;;;;;;;27.54;31.51;99952.91;4350151;32;39810;-82
2022/09/03 11:34:48;;;;;;;;;;;;;;;28.35;31.09;99944.16;4353732;32;39053;-83
2022/09/03 11:37:23;;;;;;;;;;;;;;;28.51;31.01;99950.38;4348402;32;36831;-84
2022/09/03 11:39:55;;;;;;;;;;;;;;;28.59;29.99;99944.59;4338410;33;38372;-81
2022/09/03 11:42:36;;;;;;;;;;;;;;;28.54;31.83;99950.19;4341476;32;39283;-80
2022/09/03 11:45:20;;;;;;;;;;;;;;;29.18;29.05;99941.16;4342575;32;38971;-81
2022/09/03 11:47:47;;;;;;;;;;;;;;;28.58;31.70;99951.72;4347701;32;37472;-81
2022/09/03 11:50:19;;;;;;;;;;;;;;;29.08;30.29;99955.13;4351884;32;38306;-80
2022/09/03 11:52:47;;;;;;;;;;;;;;;28.61;28.37;99948.88;4349054;32;37837;-80
2022/09/03 11:55:31;;;;;;;;;;;;;;;27.84;28.88;99948.72;4343165;32;39221;-80
2022/09/03 11:58:19;;;;;;;;;;;;;;;28.01;28.46;99952.19;4358721;32;35213;-81
2022/09/03 12:00:52;;;;;;;;;;;;;;;27.98;31.27;99956.81;4337428;33;38423;-81
2022/09/03 12:03:27;;;;;;;;;;;;;;;28.18;31.13;99953.94;4343739;32;39018;-81
2022/09/03 12:06:04;;;;;;;;;;;;;;;27.40;31.91;99960.72;4352427;32;40032;-80
2022/09/03 12:08:32;;;;;;;;;;;;;;;27.58;31.96;99958.91;4353106;32;37903;-81
2022/09/03 12:11:12;;;;;;;;;;;;;;;28.41;29.92;99955.34;4350879;32;37558;-81
2022/09/03 12:13:59;;;;;;;;;;;;;;;28.83;29.06;99945.00;4343452;32;39350;-81
2022/09/03 12:16:39;;;;;;;;;;;;;;;28.63;29.56;99949.69;4337964;33;39675;-81
2022/09/03 12:19:08;;;;;;;;;;;;;;;28.99;28.40;99945.81;4341000;32;36666;-81
2022/09/03 12:21:39;;;;;;;;;;;;;;;28.41;31.92;99941.19;4328247;33;38023;-81
2022/09/03 12:24:10;;;;;;;;;;;;;;;28.63;33.17;99939.03;4338732;33;38232;-81
2022/09/03 12:26:39;;;;;;;;;;;;;;;28.77;30.51;99948.03;4336980;32;38561;-81
2022/09/03 12:29:17;;;;;;;;;;;;;;;28.42;31.45;99951.72;4346074;32;36654;-81
2022/09/03 12:31:46;;;;;;;;;;;;;;;28.74;28.86;99941.91;4313124;32;891891;-81
2022/09/03 12:34:17;;;;;;;;;;;;;;;28.41;30.62;99943.84;4351233;32;37940;-81
2022/09/03 12:36:46;;;;;;;;;;;;;;;28.66;29.15;99948.66;4345155;32;38321;-80
2022/09/03 12:39:14;;;;;;;;;;;;;;;28.48;30.02;99942.56;4339359;33;37157;-80
2022/09/03 12:42:00;;;;;;;;;;;;;;;28.54;30.54;99938.69;3885065;32;5009130;-81
2022/09/03 12:44:30;;;;;;;;;;;;;;;29.16;30.59;99937.75;4365797;32;37987;-81
2022/09/03 12:47:00;;;;;;;;;;;;;;;29.06;29.75;99941.88;4368614;32;39717;-81
2022/09/03 12:49:49;;;;;;;;;;;;;;;27.88;32.80;99939.63;4370159;32;36998;-81
2022/09/03 12:52:16;;;;;;;;;;;;;;;27.93;32.70;99943.75;4372096;32;38389;-80
2022/09/03 12:54:50;;;;;;;;;;;;;;;28.15;29.96;99938.13;4370178;32;37623;-81
2022/09/03 12:57:19;;;;;;;;;;;;;;;28.02;31.77;99939.75;4370720;32;38775;-80
2022/09/03 12:59:46;;;;;;;;;;;;;;;28.32;32.27;99944.31;4369363;32;37180;-81
2022/09/03 13:02:16;;;;;;;;;;;;;;;27.69;30.96;99940.56;4371665;32;38347;-83
2022/09/03 13:04:44;;;;;;;;;;;;;;;27.68;31.05;99938.88;4362949;32;38111;-81
2022/09/03 13:07:13;;;;;;;;;;;;;;;27.51;32.12;99938.91;4368700;32;37548;-81